createdAt,value
2019-03-09T09:39:53.487Z,95477.45
2019-03-09T09:42:27.409Z,95482.96
2019-03-09T09:45:01.259Z,95476.81
2019-03-09T09:47:35.448Z,95481.02
2019-03-09T09:50:10.505Z,95468.13
2019-03-09T09:52:44.892Z,95468.16
2019-03-09T09:55:19.570Z,95457.48
2019-03-09T09:57:54.054Z,95455.00
2019-03-09T10:00:36.935Z,95451.84
2019-03-09T10:03:11.110Z,95453.22
2019-03-09T10:05:45.386Z,95449.61
2019-03-09T10:08:19.468Z,95446.55
2019-03-09T10:10:55.918Z,95440.77
2019-03-09T10:13:29.832Z,95437.01
2019-03-09T10:16:04.040Z,95448.53
2019-03-09T10:18:38.583Z,95434.60
2019-03-09T10:21:10.375Z,95432.20
2019-03-09T10:23:42.708Z,95423.05
2019-03-09T10:26:14.827Z,95419.03
2019-03-09T10:28:47.608Z,95434.98
2019-03-09T10:31:20.474Z,95424.45
2019-03-09T10:33:52.649Z,95406.20
2019-03-09T10:36:24.758Z,95403.17
2019-03-09T10:38:56.729Z,95396.00
2019-03-09T10:41:28.760Z,95386.77
2019-03-09T10:44:02.677Z,95390.96
2019-03-09T10:46:37.440Z,95380.77
2019-03-09T10:49:10.932Z,95377.42
2019-03-09T10:51:44.745Z,95366.91
2019-03-09T10:54:18.613Z,95362.17
2019-03-09T10:56:52.539Z,95358.28
2019-03-09T10:59:26.701Z,95344.75
2019-03-09T11:02:10.243Z,95341.81
2019-03-09T11:04:43.635Z,95342.97
2019-03-09T11:07:17.828Z,95331.38
2019-03-09T11:09:51.512Z,95319.86
2019-03-09T11:12:26.205Z,95321.48
2019-03-09T11:15:01.460Z,95319.66
2019-03-09T11:17:37.260Z,95317.52
2019-03-09T11:20:12.331Z,95316.01
2019-03-09T11:22:46.349Z,95328.27
2019-03-09T11:25:20.477Z,95321.78
2019-03-09T11:27:54.459Z,95313.81
2019-03-09T11:30:28.619Z,95296.85
2019-03-09T11:33:02.834Z,95290.84
2019-03-09T11:35:34.931Z,95288.80
2019-03-09T11:38:06.766Z,95280.30
2019-03-09T11:40:57.270Z,95277.77
2019-03-09T11:43:40.606Z,95278.21
2019-03-09T11:46:26.862Z,95275.03
2019-03-09T11:49:10.972Z,95266.80
2019-03-09T11:51:45.653Z,95272.11
2019-03-09T11:54:31.683Z,95262.87
2019-03-09T11:57:10.501Z,95269.50
2019-03-09T11:59:42.308Z,95262.02
2019-03-09T12:02:14.390Z,95258.34
2019-03-09T12:04:47.356Z,95253.88
2019-03-09T12:07:19.456Z,95254.77
2019-03-09T12:09:51.384Z,95253.02
2019-03-09T12:12:23.275Z,95248.66
2019-03-09T12:14:55.328Z,95245.78
2019-03-09T12:31:57.923Z,95239.09
2019-03-09T12:34:44.420Z,95223.88
2019-03-09T12:37:29.923Z,95223.02
2019-03-09T12:40:10.179Z,95217.27
2019-03-09T12:42:44.240Z,95212.06
2019-03-09T12:45:18.592Z,95214.66
2019-03-09T12:47:52.949Z,95204.16
2019-03-09T12:50:27.175Z,95207.05
2019-03-09T12:53:01.483Z,95203.52
2019-03-09T12:55:36.419Z,95201.98
2019-03-09T12:58:09.833Z,95201.28
2019-03-09T13:00:43.797Z,95197.52
2019-03-09T13:03:18.246Z,95192.59
2019-03-09T13:05:52.297Z,95187.03
2019-03-09T13:08:26.401Z,95184.28
2019-03-09T13:11:00.606Z,95190.42
2019-03-09T13:13:34.523Z,95189.36
2019-03-09T13:16:08.753Z,95193.28
2019-03-09T13:18:42.701Z,95185.09
2019-03-09T13:21:18.238Z,95181.40
2019-03-09T13:23:52.184Z,95181.71
2019-03-09T13:26:27.234Z,95180.75
2019-03-09T13:29:03.397Z,95170.61
2019-03-09T13:31:37.847Z,95172.78
2019-03-09T13:34:11.801Z,95162.72
2019-03-09T13:36:45.693Z,95162.80
2019-03-09T13:39:20.456Z,95156.91
2019-03-09T13:42:05.340Z,95159.86
2019-03-09T13:44:51.014Z,95147.35
2019-03-09T13:47:35.343Z,95151.41
2019-03-09T13:50:11.357Z,95143.86
2019-03-09T13:52:57.343Z,95140.59
2019-03-09T13:55:41.916Z,95139.36
2019-03-09T13:58:28.495Z,95138.03
2019-03-09T14:01:09.521Z,95133.02
2019-03-09T14:03:43.286Z,95126.42
2019-03-09T14:06:17.704Z,95129.04
2019-03-09T14:08:51.832Z,95133.73
2019-03-09T14:11:25.926Z,95120.73
2019-03-09T14:13:59.683Z,95121.80
2019-03-09T14:16:33.843Z,95121.17
2019-03-09T14:19:09.444Z,95123.43
2019-03-09T14:21:43.391Z,95108.90
2019-03-09T14:24:17.481Z,95112.67
2019-03-09T14:26:51.652Z,95102.64
2019-03-09T14:29:25.856Z,95105.57
2019-03-09T14:32:06.255Z,95101.95
2019-03-09T14:34:40.316Z,95103.83
2019-03-09T14:37:15.317Z,95097.61
2019-03-09T14:39:49.203Z,95095.04
2019-03-09T14:42:35.235Z,95093.06
2019-03-09T14:45:21.331Z,95088.44
2019-03-09T14:48:06.206Z,95099.45
2019-03-09T14:50:48.779Z,95096.58
2019-03-09T14:53:22.669Z,95096.98
2019-03-09T14:56:00.327Z,95092.73
2019-03-09T14:58:34.858Z,95087.52
2019-03-09T15:01:09.524Z,95081.88
2019-03-09T15:03:43.999Z,95073.09
2019-03-09T15:18:34.675Z,95070.37
2019-03-09T15:21:09.985Z,95070.48
2019-03-09T15:23:44.314Z,95066.42
2019-03-09T15:26:21.746Z,95065.75
2019-03-09T15:28:55.723Z,95061.45
2019-03-09T15:31:30.367Z,95063.69
2019-03-09T15:34:04.540Z,95063.70
2019-03-09T15:36:38.656Z,95062.48
2019-03-09T15:39:13.179Z,95065.53
2019-03-09T15:41:48.356Z,95060.05
2019-03-09T15:44:22.440Z,95058.12
2019-03-09T15:46:56.338Z,95056.32
2019-03-09T15:49:30.443Z,95057.27
2019-03-09T15:52:04.953Z,95055.55
2019-03-09T15:54:38.879Z,95062.16
2019-03-09T15:57:16.562Z,95058.52
2019-03-09T15:59:51.033Z,95065.05
2019-03-09T16:02:25.273Z,95068.97
